ADDS METAR Data

Data at: 0743 UTC 24 Oct 2017

METAR for:KTAN (Taunton Muni, MA, US)
Text:KTAN 240652Z AUTO 17007KT 130V190 10SM OVC070 19/16 A3009 RMK AO2 SLP188 T01940161
Temperature: 19.4°C ( 67°F)
Dewpoint: 16.1°C ( 61°F) [RH = 81%]
Pressure (altimeter):30.09 inches Hg (1019.0 mb) [Sea level pressure: 1018.8 mb]
Winds:from the S (170 degrees) at 8 MPH (7 knots; 3.6 m/s)
Visibility:10 or more sm (16+ km)
Ceiling:7000 feet AGL
Clouds: overcast cloud deck at 7000 feet AGL
QC Flag:automated observation with no human augmentation